createdAt,value
2023-01-19T00:00:30.097Z,100035.28
2023-01-19T00:02:56.579Z,100040.38
2023-01-19T00:05:22.966Z,100043.91
2023-01-19T00:07:49.344Z,100045.06
2023-01-19T00:10:16.099Z,100040.84
2023-01-19T00:12:42.491Z,100033.41
2023-01-19T00:15:09.473Z,100037.47
2023-01-19T00:17:35.970Z,100043.66
2023-01-19T00:20:03.828Z,100033.75
2023-01-19T00:22:30.213Z,100028.84
2023-01-19T00:24:56.562Z,100031.78
2023-01-19T00:27:23.367Z,100040.38
2023-01-19T00:29:49.798Z,100055.97
2023-01-19T00:32:17.849Z,100055.41
2023-01-19T00:34:49.480Z,100053.66
2023-01-19T00:37:17.128Z,100037.84
2023-01-19T00:39:43.830Z,100055.75
2023-01-19T00:42:32.124Z,100057.75
2023-01-19T00:44:58.485Z,100041.56
2023-01-19T00:47:25.291Z,100051.09
2023-01-19T00:49:52.773Z,100043.34
2023-01-19T00:52:19.607Z,100042.50
2023-01-19T00:54:46.174Z,100036.94
2023-01-19T00:57:12.707Z,100041.00
2023-01-19T00:59:39.105Z,100038.31
2023-01-19T01:02:05.592Z,100040.53
2023-01-19T01:04:32.410Z,100033.66
2023-01-19T01:06:58.799Z,100031.34
2023-01-19T01:09:25.252Z,100034.38
2023-01-19T01:11:51.601Z,100029.34
2023-01-19T01:14:18.196Z,100023.19
2023-01-19T01:16:44.809Z,100028.09
2023-01-19T01:19:11.209Z,100040.88
2023-01-19T01:21:37.617Z,100028.56
2023-01-19T01:24:04.608Z,100036.56
2023-01-19T01:26:30.978Z,100034.38
2023-01-19T01:28:57.343Z,100028.19
2023-01-19T01:31:23.968Z,100031.34
2023-01-19T01:33:50.446Z,100033.66
2023-01-19T01:36:18.960Z,100041.13
2023-01-19T01:38:45.487Z,100042.16
2023-01-19T01:41:12.215Z,100042.75
2023-01-19T01:43:50.299Z,100046.47
2023-01-19T01:46:18.138Z,100040.06
2023-01-19T01:49:00.880Z,100046.81
2023-01-19T01:51:40.744Z,100051.13
2023-01-19T01:54:33.512Z,100051.47
2023-01-19T01:57:06.538Z,100049.84
2023-01-19T01:59:39.206Z,100048.22
2023-01-19T02:02:27.807Z,100043.44
2023-01-19T02:04:57.742Z,100044.59
2023-01-19T02:07:51.818Z,100045.75
2023-01-19T02:10:37.168Z,100056.56
2023-01-19T02:13:21.812Z,100056.56
2023-01-19T02:15:56.006Z,100057.16
2023-01-19T02:18:24.751Z,100052.38
2023-01-19T02:20:58.912Z,100061.00
2023-01-19T02:23:46.151Z,100061.56
2023-01-19T02:26:20.196Z,100056.81
2023-01-19T02:28:52.667Z,100052.03
2023-01-19T02:31:19.721Z,100058.53
2023-01-19T02:33:46.274Z,100062.28
2023-01-19T02:36:15.170Z,100067.16
2023-01-19T02:38:43.924Z,100067.72
2023-01-19T02:41:13.093Z,100078.56
2023-01-19T02:43:41.839Z,100083.44
2023-01-19T02:46:08.757Z,100091.56
2023-01-19T02:48:35.972Z,100082.81
2023-01-19T02:51:09.286Z,100090.13
2023-01-19T02:53:48.407Z,100090.97
2023-01-19T02:56:49.856Z,100093.38
2023-01-19T02:59:19.159Z,100097.69
2023-01-19T03:02:19.425Z,100093.16
2023-01-19T03:05:00.708Z,100101.53
2023-01-19T03:08:05.003Z,100112.81
2023-01-19T03:10:57.834Z,100116.53
2023-01-19T03:13:41.812Z,100123.31
2023-01-19T03:16:48.703Z,100120.63
2023-01-19T03:19:23.750Z,100111.56
2023-01-19T03:21:57.836Z,100104.31
2023-01-19T03:24:28.845Z,100100.00
2023-01-19T03:27:09.280Z,100111.31
2023-01-19T03:29:38.966Z,100111.31
2023-01-19T03:32:13.087Z,100109.66
2023-01-19T03:34:41.901Z,100115.59
2023-01-19T03:37:11.379Z,100115.59
2023-01-19T03:39:37.859Z,100122.59
2023-01-19T03:42:08.323Z,100128.53
2023-01-19T03:44:37.794Z,100126.69
2023-01-19T03:47:07.248Z,100128.53
2023-01-19T03:49:35.089Z,100126.91
2023-01-19T03:52:01.485Z,100137.88
2023-01-19T03:54:28.278Z,100139.72
2023-01-19T03:56:54.705Z,100145.06
2023-01-19T03:59:21.854Z,100144.28
2023-01-19T04:01:48.620Z,100140.19
2023-01-19T04:04:15.555Z,100163.69
2023-01-19T04:06:42.560Z,100156.97
2023-01-19T04:09:08.921Z,100160.09
2023-01-19T04:11:35.392Z,100151.97
2023-01-19T04:14:01.780Z,100157.53
2023-01-19T04:16:29.079Z,100153.72
2023-01-19T04:18:55.672Z,100153.63
2023-01-19T04:21:22.022Z,100154.66
2023-01-19T04:23:49.897Z,100151.88
2023-01-19T04:26:16.504Z,100141.63
2023-01-19T04:28:42.862Z,100152.34
2023-01-19T04:31:09.255Z,100153.25
2023-01-19T04:33:35.674Z,100156.97
2023-01-19T04:36:04.215Z,100151.63
2023-01-19T04:38:30.767Z,100165.22
2023-01-19T04:40:57.118Z,100162.78
2023-01-19T04:43:24.079Z,100168.16
2023-01-19T04:45:50.591Z,100173.50
2023-01-19T04:48:18.483Z,100174.31
2023-01-19T04:50:45.114Z,100175.59
2023-01-19T04:53:13.618Z,100173.97
2023-01-19T04:55:40.210Z,100184.66
2023-01-19T04:58:06.567Z,100182.22
2023-01-19T05:00:33.773Z,100184.28
2023-01-19T05:03:01.484Z,100190.94
2023-01-19T05:05:28.285Z,100195.47
2023-01-19T05:07:54.894Z,100193.63
2023-01-19T05:10:21.364Z,100203.72
2023-01-19T05:12:47.832Z,100200.22
2023-01-19T05:15:14.210Z,100211.50
2023-01-19T05:17:40.700Z,100219.06
2023-01-19T05:20:09.442Z,100215.81
2023-01-19T05:22:35.826Z,100218.75
2023-01-19T05:25:02.414Z,100210.25
2023-01-19T05:27:28.774Z,100210.25
2023-01-19T05:29:55.154Z,100213.72
2023-01-19T05:32:21.508Z,100211.88
2023-01-19T05:34:47.897Z,100215.16
2023-01-19T05:37:14.302Z,100219.66
2023-01-19T05:39:40.661Z,100225.84
2023-01-19T05:42:07.254Z,100222.13
2023-01-19T05:44:33.653Z,100224.81
2023-01-19T05:47:00.136Z,100232.81
2023-01-19T05:49:26.528Z,100253.19
2023-01-19T05:51:52.879Z,100245.16
2023-01-19T05:54:19.244Z,100238.97
2023-01-19T05:56:45.755Z,100237.25
2023-01-19T05:59:13.056Z,100242.97
2023-01-19T06:01:40.331Z,100244.97
2023-01-19T06:04:07.051Z,100254.16
2023-01-19T06:06:33.416Z,100249.41
2023-01-19T06:08:59.786Z,100256.59
2023-01-19T06:11:26.244Z,100251.47
2023-01-19T06:13:52.927Z,100253.56
2023-01-19T06:16:19.482Z,100264.28
2023-01-19T06:18:45.962Z,100270.09
2023-01-19T06:21:14.238Z,100274.88
2023-01-19T06:23:40.963Z,100282.06
2023-01-19T06:26:07.443Z,100287.41
2023-01-19T06:28:33.876Z,100277.53
2023-01-19T06:31:01.036Z,100285.09
2023-01-19T06:33:28.067Z,100297.56
2023-01-19T06:35:55.165Z,100305.34
2023-01-19T06:38:21.569Z,100328.19
2023-01-19T06:40:58.900Z,100321.34
2023-01-19T06:43:26.122Z,100321.34
2023-01-19T06:45:52.761Z,100325.41
2023-01-19T06:48:19.694Z,100322.47
2023-01-19T06:50:46.884Z,100332.16
2023-01-19T06:53:13.799Z,100327.84
2023-01-19T06:55:40.256Z,100323.06
2023-01-19T06:58:06.622Z,100323.31
2023-01-19T07:00:32.986Z,100331.56
2023-01-19T07:02:59.706Z,100336.34
2023-01-19T07:05:26.483Z,100334.13
2023-01-19T07:07:56.689Z,100338.91
2023-01-19T07:10:24.574Z,100347.97
2023-01-19T07:13:01.541Z,100349.03
2023-01-19T07:15:53.146Z,100357.50
2023-01-19T07:18:19.536Z,100356.91
2023-01-19T07:20:46.905Z,100362.72
2023-01-19T07:23:33.044Z,100359.91
2023-01-19T07:26:05.063Z,100364.53
2023-01-19T07:28:32.914Z,100370.78
2023-01-19T07:31:08.949Z,100380.91
2023-01-19T07:33:38.578Z,100382.41
2023-01-19T07:36:05.266Z,100391.91
2023-01-19T07:38:44.978Z,100388.66
2023-01-19T07:41:13.835Z,100389.69
2023-01-19T07:43:40.221Z,100406.34
2023-01-19T07:46:17.804Z,100404.25
2023-01-19T07:48:57.492Z,100407.72
2023-01-19T07:51:23.860Z,100414.50
2023-01-19T07:54:14.265Z,100412.44
2023-01-19T07:56:40.726Z,100421.84
2023-01-19T07:59:10.720Z,100417.91
2023-01-19T08:01:37.781Z,100421.84
2023-01-19T08:04:04.672Z,100431.75
2023-01-19T08:06:37.138Z,100431.38
2023-01-19T08:09:05.581Z,100439.03
2023-01-19T08:11:32.130Z,100450.84
2023-01-19T08:13:58.787Z,100459.53
2023-01-19T08:16:25.487Z,100459.53
2023-01-19T08:18:51.841Z,100462.44
2023-01-19T08:21:18.224Z,100462.06
2023-01-19T08:23:44.607Z,100472.59
2023-01-19T08:26:36.338Z,100475.28
2023-01-19T08:29:05.231Z,100477.38
2023-01-19T08:31:31.775Z,100472.00
2023-01-19T08:33:58.635Z,100477.38
2023-01-19T08:36:25.171Z,100483.31
2023-01-19T08:38:51.943Z,100475.88
2023-01-19T08:41:18.342Z,100481.81
2023-01-19T08:43:45.454Z,100490.84
2023-01-19T08:46:12.322Z,100487.47
2023-01-19T08:48:40.013Z,100491.94
2023-01-19T08:51:06.521Z,100498.03
2023-01-19T08:53:33.121Z,100501.03
2023-01-19T08:56:02.490Z,100500.59
2023-01-19T08:58:29.130Z,100503.41
2023-01-19T09:00:56.071Z,100499.88
2023-01-19T09:03:22.913Z,100505.56
2023-01-19T09:05:50.393Z,100504.94
2023-01-19T09:08:16.846Z,100505.38
2023-01-19T09:10:48.311Z,100510.03
2023-01-19T09:13:15.375Z,100504.06
2023-01-19T09:15:51.231Z,100511.31
2023-01-19T09:18:20.300Z,100514.78
2023-01-19T09:20:48.704Z,100522.38
2023-01-19T09:23:18.683Z,100512.50
2023-01-19T09:25:47.237Z,100513.28
2023-01-19T09:28:16.228Z,100518.19
2023-01-19T09:30:51.596Z,100524.72
2023-01-19T09:33:19.802Z,100517.28
2023-01-19T09:35:48.304Z,100528.00
2023-01-19T09:38:16.802Z,100527.41
2023-01-19T09:40:54.472Z,100526.38
2023-01-19T09:43:45.553Z,100530.38
2023-01-19T09:46:21.630Z,100534.81
2023-01-19T09:48:52.468Z,100533.19
2023-01-19T09:51:32.353Z,100533.19
2023-01-19T09:54:18.161Z,100533.06
2023-01-19T09:56:51.991Z,100534.63
2023-01-19T09:59:29.616Z,100540.25
2023-01-19T10:02:31.814Z,100541.91
2023-01-19T10:05:05.394Z,100539.47
2023-01-19T10:08:09.616Z,100545.31
2023-01-19T10:10:37.581Z,100549.63
2023-01-19T10:13:29.005Z,100549.63
2023-01-19T10:16:34.928Z,100554.06
2023-01-19T10:19:25.697Z,100562.03
2023-01-19T10:21:59.685Z,100549.97
2023-01-19T10:24:33.258Z,100555.84
2023-01-19T10:26:59.943Z,100554.50
2023-01-19T10:29:38.609Z,100556.84
2023-01-19T10:32:10.125Z,100560.03
2023-01-19T10:34:36.754Z,100573.31
2023-01-19T10:37:15.680Z,100560.84
2023-01-19T10:39:42.711Z,100555.28
2023-01-19T10:42:13.083Z,100565.50
2023-01-19T10:44:39.638Z,100568.13
2023-01-19T10:47:21.802Z,100562.94
2023-01-19T10:49:48.920Z,100568.22
2023-01-19T10:52:36.827Z,100573.97
2023-01-19T10:55:07.059Z,100569.78
2023-01-19T10:57:55.771Z,100568.31
2023-01-19T11:00:37.834Z,100557.88
2023-01-19T11:03:24.325Z,100551.53
2023-01-19T11:06:27.394Z,100550.66
2023-01-19T11:09:10.445Z,100548.72
2023-01-19T11:11:43.701Z,100543.13
2023-01-19T11:14:13.980Z,100551.03
2023-01-19T11:16:44.931Z,100560.13
2023-01-19T11:19:26.514Z,100559.56
2023-01-19T11:22:07.424Z,100548.44
2023-01-19T11:24:33.791Z,100548.81
2023-01-19T11:27:03.599Z,100553.03
2023-01-19T11:29:30.511Z,100568.53
2023-01-19T11:32:10.275Z,100564.31
2023-01-19T11:34:39.179Z,100576.41
2023-01-19T11:37:27.448Z,100573.28
2023-01-19T11:39:57.433Z,100579.53
2023-01-19T11:42:25.318Z,100582.44
2023-01-19T11:44:57.754Z,100580.81
2023-01-19T11:47:34.102Z,100579.38
2023-01-19T11:50:15.191Z,100584.53
2023-01-19T11:53:00.145Z,100588.09
2023-01-19T11:55:36.517Z,100577.94
2023-01-19T11:58:04.584Z,100577.75
2023-01-19T12:00:39.719Z,100578.69
2023-01-19T12:03:23.109Z,100573.44
2023-01-19T12:05:52.769Z,100578.72
2023-01-19T12:08:27.031Z,100585.34
2023-01-19T12:10:57.609Z,100584.34
2023-01-19T12:13:26.307Z,100577.47
2023-01-19T12:16:15.889Z,100589.81
2023-01-19T12:18:47.423Z,100579.47
2023-01-19T12:21:13.870Z,100592.69
2023-01-19T12:24:18.029Z,100590.53
2023-01-19T12:27:13.541Z,100587.22
2023-01-19T12:29:41.294Z,100583.50
2023-01-19T12:32:13.928Z,100588.06
2023-01-19T12:34:47.852Z,100580.03
2023-01-19T12:37:39.496Z,100589.47
2023-01-19T12:40:27.808Z,100588.38
2023-01-19T12:43:05.904Z,100587.34
2023-01-19T12:45:34.771Z,100583.75
2023-01-19T12:48:02.627Z,100588.28
2023-01-19T12:50:36.001Z,100585.72
2023-01-19T12:53:03.632Z,100583.66
2023-01-19T12:55:33.251Z,100589.19
2023-01-19T12:58:06.124Z,100592.06
2023-01-19T13:00:41.694Z,100597.78
2023-01-19T13:03:17.337Z,100593.38
2023-01-19T13:05:43.689Z,100585.97
2023-01-19T13:08:10.000Z,100581.16
2023-01-19T13:11:10.524Z,100598.09
2023-01-19T13:13:42.316Z,100592.22
2023-01-19T13:16:17.933Z,100605.59
2023-01-19T13:18:53.890Z,100601.66
2023-01-19T13:21:30.083Z,100597.31
2023-01-19T13:23:59.639Z,100604.94
2023-01-19T13:26:32.750Z,100596.50
2023-01-19T13:29:07.809Z,100599.72
2023-01-19T13:31:36.517Z,100604.13
2023-01-19T13:34:05.320Z,100598.72
2023-01-19T13:36:35.364Z,100603.31
2023-01-19T13:39:05.005Z,100606.66
2023-01-19T13:41:37.860Z,100608.91
2023-01-19T13:44:18.432Z,100614.31
2023-01-19T13:46:46.675Z,100614.69
2023-01-19T13:49:19.890Z,100616.13
2023-01-19T13:51:47.885Z,100611.69
2023-01-19T13:54:17.593Z,100619.63
2023-01-19T13:56:50.191Z,100618.50
2023-01-19T13:59:16.618Z,100621.09
2023-01-19T14:01:45.804Z,100623.66
2023-01-19T14:04:32.144Z,100625.66
2023-01-19T14:07:02.674Z,100633.47
2023-01-19T14:09:29.123Z,100638.13
2023-01-19T14:12:17.512Z,100642.56
2023-01-19T14:14:47.260Z,100642.09
2023-01-19T14:17:26.288Z,100643.03
2023-01-19T14:19:55.559Z,100642.31
2023-01-19T14:22:36.461Z,100649.78
2023-01-19T14:25:27.053Z,100656.31
2023-01-19T14:28:36.000Z,100651.19
2023-01-19T14:31:23.264Z,100654.81
2023-01-19T14:33:52.882Z,100658.16
2023-01-19T14:36:27.250Z,100662.03
2023-01-19T14:38:56.282Z,100654.59
2023-01-19T14:41:47.852Z,100654.81
2023-01-19T14:44:31.809Z,100659.97
2023-01-19T14:46:59.621Z,100656.13
2023-01-19T14:49:31.501Z,100650.50
2023-01-19T14:51:58.497Z,100659.25
2023-01-19T14:54:31.632Z,100651.19
2023-01-19T14:56:57.996Z,100662.88
2023-01-19T14:59:24.707Z,100656.56
2023-01-19T15:01:51.242Z,100656.91
2023-01-19T15:04:17.797Z,100659.44
2023-01-19T15:06:45.837Z,100666.53
2023-01-19T15:09:13.880Z,100660.91
2023-01-19T15:11:41.105Z,100655.66
2023-01-19T15:14:13.259Z,100660.63
2023-01-19T15:16:40.346Z,100664.84
2023-01-19T15:19:15.857Z,100665.75
2023-01-19T15:21:42.767Z,100675.75
2023-01-19T15:24:10.596Z,100675.38
2023-01-19T15:26:40.024Z,100675.84
2023-01-19T15:29:20.054Z,100678.38
2023-01-19T15:31:46.492Z,100685.47
2023-01-19T15:34:13.474Z,100697.69
2023-01-19T15:36:40.349Z,100693.56
2023-01-19T15:39:06.722Z,100701.84
2023-01-19T15:41:33.279Z,100695.50
2023-01-19T15:43:59.659Z,100700.16
2023-01-19T15:46:26.310Z,100705.38
2023-01-19T15:48:53.505Z,100707.91
2023-01-19T15:51:22.367Z,100702.38
2023-01-19T15:53:49.602Z,100713.16
2023-01-19T15:56:24.601Z,100717.75
2023-01-19T15:58:52.150Z,100713.28
2023-01-19T16:01:24.770Z,100712.16
2023-01-19T16:03:51.332Z,100716.97
2023-01-19T16:06:18.159Z,100717.84
2023-01-19T16:08:45.173Z,100710.91
2023-01-19T16:11:13.895Z,100723.91
2023-01-19T16:13:40.292Z,100723.53
2023-01-19T16:16:15.898Z,100728.94
2023-01-19T16:18:42.306Z,100725.25
2023-01-19T16:21:08.671Z,100734.75
2023-01-19T16:23:35.058Z,100733.97
2023-01-19T16:26:04.972Z,100738.78
2023-01-19T16:28:31.655Z,100737.41
2023-01-19T16:30:58.046Z,100745.84
2023-01-19T16:33:24.401Z,100744.88
2023-01-19T16:35:51.147Z,100755.16
2023-01-19T16:38:17.655Z,100760.53
2023-01-19T16:40:45.667Z,100761.78
2023-01-19T16:43:13.155Z,100769.19
2023-01-19T16:46:23.015Z,100772.50
2023-01-19T16:48:50.839Z,100767.78
2023-01-19T16:51:17.664Z,100767.63
2023-01-19T16:53:44.095Z,100768.06
2023-01-19T16:56:12.979Z,100768.47
2023-01-19T16:58:40.406Z,100770.53
2023-01-19T17:01:19.891Z,100772.59
2023-01-19T17:03:46.805Z,100774.66
2023-01-19T17:06:15.534Z,100782.25
2023-01-19T17:08:41.988Z,100778.97
2023-01-19T17:11:26.645Z,100783.50
2023-01-19T17:13:55.377Z,100783.50
2023-01-19T17:16:23.104Z,100785.56
2023-01-19T17:18:49.979Z,100794.00
2023-01-19T17:21:17.920Z,100793.41
2023-01-19T17:23:45.825Z,100796.06
2023-01-19T17:26:12.224Z,100802.84
2023-01-19T17:28:38.723Z,100800.59
2023-01-19T17:31:09.100Z,100803.69
2023-01-19T17:33:35.580Z,100805.53
2023-01-19T17:36:12.635Z,100806.78
2023-01-19T17:38:39.800Z,100807.19
2023-01-19T17:41:14.738Z,100805.56
2023-01-19T17:43:50.307Z,100812.94
2023-01-19T17:46:18.105Z,100817.25
2023-01-19T17:48:44.913Z,100815.63
2023-01-19T17:51:23.225Z,100803.28
2023-01-19T17:53:50.868Z,100811.50
2023-01-19T17:56:25.131Z,100816.66
2023-01-19T17:58:59.195Z,100818.91
2023-01-19T18:01:40.515Z,100817.91
2023-01-19T18:04:11.161Z,100824.47
2023-01-19T18:06:47.191Z,100824.06
2023-01-19T18:09:32.072Z,100819.13
2023-01-19T18:11:58.513Z,100815.84
2023-01-19T18:14:30.029Z,100826.50
2023-01-19T18:16:56.613Z,100831.06
2023-01-19T18:19:40.483Z,100829.19
2023-01-19T18:22:08.934Z,100836.16
2023-01-19T18:24:35.373Z,100832.69
2023-01-19T18:27:06.800Z,100836.59
2023-01-19T18:29:33.208Z,100831.84
2023-01-19T18:32:10.004Z,100848.72
2023-01-19T18:34:37.587Z,100850.75
2023-01-19T18:37:03.995Z,100852.81
2023-01-19T18:39:32.559Z,100847.47
2023-01-19T18:42:00.194Z,100848.28
2023-01-19T18:44:28.633Z,100842.53
2023-01-19T18:46:56.670Z,100850.31
2023-01-19T18:49:23.125Z,100849.09
2023-01-19T18:51:51.623Z,100852.81
2023-01-19T18:54:18.245Z,100846.22
2023-01-19T18:56:44.643Z,100845.81
2023-01-19T18:59:11.041Z,100847.84
2023-01-19T19:01:41.694Z,100848.06
2023-01-19T19:04:08.409Z,100844.19
2023-01-19T19:06:41.820Z,100853.22
2023-01-19T19:09:08.978Z,100858.56
2023-01-19T19:11:35.624Z,100854.03
2023-01-19T19:14:02.627Z,100858.16
2023-01-19T19:16:30.190Z,100858.75
2023-01-19T19:18:56.838Z,100863.69
2023-01-19T19:21:25.428Z,100880.75
2023-01-19T19:23:57.278Z,100878.69
2023-01-19T19:26:25.055Z,100875.63
2023-01-19T19:28:51.406Z,100884.84
2023-01-19T19:31:20.750Z,100884.84
2023-01-19T19:33:48.528Z,100884.03
2023-01-19T19:36:15.015Z,100895.53
2023-01-19T19:38:42.838Z,100896.97
2023-01-19T19:41:12.254Z,100913.63
2023-01-19T19:43:39.006Z,100904.16
2023-01-19T19:46:08.131Z,100910.94
2023-01-19T19:48:36.694Z,100909.72
2023-01-19T19:51:18.581Z,100923.47
2023-01-19T19:53:51.783Z,100920.56
2023-01-19T19:56:21.102Z,100927.16
2023-01-19T19:58:48.248Z,100930.44
2023-01-19T20:01:19.252Z,100922.41
2023-01-19T20:03:46.171Z,100922.22
2023-01-19T20:06:20.828Z,100929.41
2023-01-19T20:08:51.499Z,100926.75
2023-01-19T20:11:21.598Z,100929.81
2023-01-19T20:13:47.936Z,100934.16
2023-01-19T20:16:16.852Z,100930.25
2023-01-19T20:18:48.389Z,100944.44
2023-01-19T20:21:38.102Z,100938.47
2023-01-19T20:24:12.679Z,100948.34
2023-01-19T20:26:42.085Z,100949.78
2023-01-19T20:29:10.636Z,100959.66
2023-01-19T20:31:41.940Z,100963.34
2023-01-19T20:34:10.505Z,100958.84
2023-01-19T20:36:37.937Z,100960.47
2023-01-19T20:39:09.523Z,100969.31
2023-01-19T20:41:43.136Z,100976.72
2023-01-19T20:44:11.384Z,100976.13
2023-01-19T20:46:37.757Z,100974.91
2023-01-19T20:49:04.590Z,100985.78
2023-01-19T20:51:30.989Z,100979.81
2023-01-19T20:53:57.355Z,100995.03
2023-01-19T20:56:23.855Z,100990.31
2023-01-19T20:58:51.247Z,101001.63
2023-01-19T21:01:24.929Z,100994.63
2023-01-19T21:03:51.820Z,100994.81
2023-01-19T21:06:21.280Z,100998.34
2023-01-19T21:08:51.243Z,100994.03
2023-01-19T21:11:23.837Z,100993.41
2023-01-19T21:13:55.588Z,100988.06
2023-01-19T21:16:34.267Z,100992.78
2023-01-19T21:19:00.637Z,100983.75
2023-01-19T21:21:31.734Z,100988.66
2023-01-19T21:24:02.541Z,100985.19
2023-01-19T21:26:33.217Z,100985.19
2023-01-19T21:29:14.679Z,100995.25
2023-01-19T21:31:42.015Z,100999.56
2023-01-19T21:34:09.132Z,101004.28
2023-01-19T21:36:35.539Z,101004.28
2023-01-19T21:39:01.951Z,101002.44
2023-01-19T21:41:30.021Z,101017.84
2023-01-19T21:43:56.544Z,101015.38
2023-01-19T21:46:29.432Z,101022.16
2023-01-19T21:48:57.925Z,101020.94
2023-01-19T21:51:24.338Z,101016.59
2023-01-19T21:53:55.992Z,101020.31
2023-01-19T21:56:22.984Z,101019.47
2023-01-19T21:58:49.321Z,101017.19
2023-01-19T22:01:16.010Z,101027.47
2023-01-19T22:03:42.866Z,101028.50
2023-01-19T22:06:12.012Z,101031.38
2023-01-19T22:08:46.505Z,101027.88
2023-01-19T22:11:15.655Z,101036.94
2023-01-19T22:13:46.678Z,101038.97
2023-01-19T22:16:15.772Z,101047.41
2023-01-19T22:18:44.848Z,101045.13
2023-01-19T22:21:20.084Z,101060.31
2023-01-19T22:23:49.942Z,101058.06
2023-01-19T22:26:16.550Z,101064.00
2023-01-19T22:29:11.863Z,101074.28
2023-01-19T22:31:45.676Z,101077.16
2023-01-19T22:34:13.451Z,101077.34
2023-01-19T22:36:39.883Z,101075.31
2023-01-19T22:39:08.792Z,101075.13
2023-01-19T22:41:44.812Z,101080.88
2023-01-19T22:44:14.916Z,101078.81
2023-01-19T22:46:41.973Z,101074.50
2023-01-19T22:49:10.473Z,101071.44
2023-01-19T22:51:36.889Z,101072.47
2023-01-19T22:54:23.084Z,101069.56
2023-01-19T22:56:49.625Z,101066.72
2023-01-19T22:59:15.985Z,101071.44
2023-01-19T23:01:49.258Z,101071.84
2023-01-19T23:04:15.941Z,101085.81
2023-01-19T23:06:51.672Z,101075.13
2023-01-19T23:09:18.588Z,101080.47
2023-01-19T23:11:51.113Z,101078.59
2023-01-19T23:14:46.212Z,101079.44
2023-01-19T23:17:12.706Z,101077.59
2023-01-19T23:19:51.450Z,101075.13
2023-01-19T23:22:17.807Z,101073.47
2023-01-19T23:24:45.192Z,101084.16
2023-01-19T23:27:11.935Z,101086.22
2023-01-19T23:29:38.294Z,101078.41
2023-01-19T23:32:13.050Z,101075.53
2023-01-19T23:34:41.498Z,101083.75
2023-01-19T23:37:26.345Z,101077.34
2023-01-19T23:40:00.960Z,101083.31
2023-01-19T23:42:27.420Z,101079.00
2023-01-19T23:45:00.966Z,101079.63
2023-01-19T23:47:30.953Z,101082.09
2023-01-19T23:50:00.467Z,101094.00
2023-01-19T23:52:30.482Z,101085.38
2023-01-19T23:54:57.125Z,101079.59
2023-01-19T23:57:23.815Z,101082.47
